Time;durP1;ratioP1;P1;durP2;ratioP2;P2;SDS_P1;SDS_P2;PMS_P1;PMS_P2;Temp;Humidity;BMP_temperature;BMP_pressure;BME280_temperature;BME280_humidity;BME280_pressure;Samples;Min_cycle;Max_cycle;Signal;HPM_P1;HPM_P2
2022/06/01 00:00:08;;;;;;;7.88;5.57;;;9.80;99.90;;;;;;5007576;28;20059;-68
2022/06/01 00:02:37;;;;;;;7.55;5.63;;;9.70;99.90;;;;;;5009105;28;20177;-66
2022/06/01 00:05:05;;;;;;;6.85;6.22;;;9.70;99.90;;;;;;5009914;28;20095;-66
2022/06/01 00:07:33;;;;;;;6.78;6.05;;;9.70;99.90;;;;;;5008431;28;20472;-69
2022/06/01 00:10:00;;;;;;;8.25;6.97;;;9.70;99.90;;;;;;5008624;28;20136;-68
2022/06/01 00:12:29;;;;;;;7.72;5.72;;;9.70;99.90;;;;;;5011875;28;20126;-67
2022/06/01 00:14:57;;;;;;;11.30;5.93;;;9.70;99.90;;;;;;5007782;28;20053;-67
2022/06/01 00:17:24;;;;;;;7.40;5.75;;;9.60;99.90;;;;;;5009332;28;20144;-67
2022/06/01 00:19:51;;;;;;;6.55;5.78;;;9.60;99.90;;;;;;5010119;28;20050;-68
2022/06/01 00:22:18;;;;;;;10.15;6.45;;;9.60;99.90;;;;;;5010385;28;20077;-66
2022/06/01 00:24:47;;;;;;;9.20;6.40;;;9.60;99.90;;;;;;5011196;28;20077;-67
2022/06/01 00:27:16;;;;;;;7.93;5.45;;;9.60;99.90;;;;;;5011479;28;20148;-66
2022/06/01 00:29:43;;;;;;;6.93;6.22;;;9.50;99.90;;;;;;4983097;28;20049;-66
2022/06/01 00:32:13;;;;;;;10.15;7.60;;;9.50;99.90;;;;;;5008865;28;20053;-67
2022/06/01 00:34:41;;;;;;;8.43;7.35;;;9.50;99.90;;;;;;5006629;28;20135;-66
2022/06/01 00:37:09;;;;;;;8.85;7.70;;;9.50;99.90;;;;;;5006283;28;20212;-67
2022/06/01 00:39:37;;;;;;;9.98;7.03;;;9.50;99.90;;;;;;5008292;28;21715;-67
2022/06/01 00:42:17;;;;;;;11.60;7.80;;;9.50;99.90;;;;;;5010206;28;20050;-66
2022/06/01 00:44:45;;;;;;;9.60;6.70;;;9.50;99.90;;;;;;5006346;28;20116;-68
2022/06/01 00:47:12;;;;;;;7.63;6.82;;;9.50;99.90;;;;;;5010601;28;20055;-67
2022/06/01 00:49:54;;;;;;;14.93;9.65;;;9.50;99.90;;;;;;5008597;28;20069;-67
2022/06/01 00:52:35;;;;;;;12.20;9.23;;;9.50;99.90;;;;;;5011052;28;20908;-69
2022/06/01 00:55:36;;;;;;;10.15;9.13;;;9.50;99.90;;;;;;5010390;28;20053;-69
2022/06/01 00:58:07;;;;;;;;;;;9.40;99.90;;;;;;4997455;28;20144;-66
2022/06/01 01:00:38;;;;;;;20.77;11.27;;;9.50;99.90;;;;;;5010203;28;20059;-67
2022/06/01 01:03:06;;;;;;;;;;;9.50;99.90;;;;;;5014404;28;20060;-67
2022/06/01 01:05:33;;;;;;;14.30;11.85;;;9.50;99.90;;;;;;5011093;28;19940;-67
2022/06/01 01:08:05;;;;;;;16.73;12.00;;;9.50;99.90;;;;;;5014191;28;20255;-69
2022/06/01 01:10:33;;;;;;;18.38;11.32;;;9.50;99.90;;;;;;4993701;28;20077;-65
2022/06/01 01:13:05;;;;;;;13.05;11.63;;;9.50;99.90;;;;;;5015076;28;21522;-65
2022/06/01 01:15:38;;;;;;;15.30;11.43;;;9.50;99.90;;;;;;5012043;28;20060;-67
2022/06/01 01:18:11;;;;;;;14.65;10.52;;;9.50;99.90;;;;;;5011739;28;21524;-67
2022/06/01 01:21:02;;;;;;;21.73;13.40;;;9.50;99.90;;;;;;5014244;28;20175;-67
2022/06/01 01:23:49;;;;;;;17.75;13.20;;;9.50;99.90;;;;;;5010150;28;20504;-69
2022/06/01 01:26:16;;;;;;;15.98;12.25;;;9.50;99.90;;;;;;5013952;28;20084;-65
2022/06/01 01:28:43;;;;;;;18.80;13.50;;;9.50;99.90;;;;;;5012363;28;20514;-66
2022/06/01 01:31:16;;;;;;;16.00;13.38;;;9.50;99.90;;;;;;5011582;28;20061;-66
2022/06/01 01:33:46;;;;;;;18.00;13.65;;;9.60;99.90;;;;;;5007844;28;20080;-65
2022/06/01 01:36:14;;;;;;;20.97;14.63;;;9.60;99.90;;;;;;5013062;28;20048;-68
2022/06/01 01:38:54;;;;;;;22.55;14.25;;;9.60;99.90;;;;;;5012970;28;20150;-67
2022/06/01 01:41:33;;;;;;;19.27;12.55;;;9.60;99.90;;;;;;5011520;28;20144;-70
2022/06/01 01:44:04;;;;;;;17.17;13.50;;;9.70;99.90;;;;;;5009738;28;20573;-65
2022/06/01 01:46:31;;;;;;;18.63;12.68;;;9.60;99.90;;;;;;5013929;28;20090;-67
2022/06/01 01:48:59;;;;;;;20.40;14.82;;;9.70;99.90;;;;;;5006064;28;20050;-70
2022/06/01 01:51:28;;;;;;;18.50;14.23;;;9.70;99.90;;;;;;5010834;28;20095;-65
2022/06/01 01:53:59;;;;;;;19.55;14.68;;;9.80;99.90;;;;;;5012496;28;20060;-70
2022/06/01 01:56:54;;;;;;;23.38;13.95;;;9.80;99.90;;;;;;5011722;28;20576;-68
2022/06/01 01:59:47;;;;;;;18.00;12.82;;;9.80;99.90;;;;;;5009401;28;20081;-66
2022/06/01 02:02:32;;;;;;;17.48;15.50;;;9.80;99.90;;;;;;5008449;28;20073;-69
2022/06/01 02:08:06;;;;;;;20.13;14.77;;;9.80;99.90;;;;;;5010029;28;20059;-67
2022/06/01 02:13:21;;;;;;;22.95;14.32;;;9.90;99.90;;;;;;5011723;28;20181;-67
2022/06/01 02:15:49;;;;;;;20.70;13.20;;;9.80;99.90;;;;;;5009856;28;20132;-70
2022/06/01 02:18:24;;;;;;;18.45;15.85;;;9.90;99.90;;;;;;5012807;28;20160;-69
2022/06/01 02:20:58;;;;;;;22.27;16.38;;;9.90;99.90;;;;;;5007610;28;20157;-66
2022/06/01 02:23:29;;;;;;;22.35;14.60;;;9.90;99.90;;;;;;5011155;28;20611;-69
2022/06/01 02:25:57;;;;;;;;;;;9.90;99.90;;;;;;5010701;28;20084;-68
2022/06/01 02:28:25;;;;;;;21.73;15.57;;;9.90;99.90;;;;;;5009110;28;20098;-67
2022/06/01 02:30:53;;;;;;;19.25;15.43;;;9.90;99.90;;;;;;5009980;28;20636;-66
2022/06/01 02:33:25;;;;;;;21.75;14.75;;;10.00;99.90;;;;;;5010919;28;20053;-67
2022/06/01 02:35:58;;;;;;;24.15;15.95;;;10.00;99.90;;;;;;5009275;28;20228;-70
2022/06/01 02:38:37;;;;;;;19.73;15.27;;;10.00;99.90;;;;;;5008794;28;20064;-68
2022/06/01 02:41:04;;;;;;;18.98;15.25;;;10.00;99.90;;;;;;5011616;28;20054;-68
2022/06/01 02:43:31;;;;;;;20.02;15.57;;;10.00;99.90;;;;;;5009866;28;20056;-67
2022/06/01 02:45:58;;;;;;;19.70;14.38;;;10.00;99.90;;;;;;5010351;28;21230;-66
2022/06/01 02:48:25;;;;;;;22.55;15.38;;;10.10;99.90;;;;;;5009560;28;20620;-66
2022/06/01 02:50:52;;;;;;;20.00;15.68;;;10.00;99.90;;;;;;5010288;28;20079;-66
2022/06/01 02:53:19;;;;;;;21.30;14.73;;;10.10;99.90;;;;;;5006720;28;20045;-68
2022/06/01 02:55:46;;;;;;;22.17;14.23;;;10.10;99.90;;;;;;5007894;28;20179;-66
2022/06/01 02:58:13;;;;;;;21.25;15.18;;;10.10;99.90;;;;;;5010055;28;20123;-66
2022/06/01 03:00:40;;;;;;;20.73;14.38;;;10.10;99.90;;;;;;5007336;28;20107;-65
2022/06/01 03:03:10;;;;;;;15.23;13.57;;;10.20;99.90;;;;;;5009756;28;20042;-65
2022/06/01 03:05:39;;;;;;;22.80;13.70;;;10.20;99.90;;;;;;5008684;28;20057;-67
2022/06/01 03:08:07;;;;;;;13.35;11.75;;;10.20;99.90;;;;;;5008714;28;20146;-68
2022/06/01 03:10:34;;;;;;;21.88;14.10;;;10.20;99.90;;;;;;5008075;28;20140;-67
2022/06/01 03:13:03;;;;;;;17.15;13.02;;;10.30;99.90;;;;;;5009475;28;20150;-66
2022/06/01 03:15:30;;;;;;;20.58;12.93;;;10.30;99.90;;;;;;5007105;28;20056;-69
2022/06/01 03:17:57;;;;;;;20.42;13.02;;;10.30;99.90;;;;;;5010306;28;20887;-69
2022/06/01 03:20:27;;;;;;;15.43;10.93;;;10.30;99.90;;;;;;5008793;28;20049;-67
2022/06/01 03:22:58;;;;;;;16.65;11.80;;;10.30;99.90;;;;;;5011400;28;20095;-66
2022/06/01 03:25:26;;;;;;;15.48;11.27;;;10.30;99.90;;;;;;5004419;28;20139;-65
2022/06/01 03:27:59;;;;;;;13.70;10.38;;;10.30;99.90;;;;;;5008659;28;20057;-65
2022/06/01 03:30:27;;;;;;;13.63;9.82;;;10.30;99.90;;;;;;5009796;28;20208;-69
2022/06/01 03:32:55;;;;;;;13.95;11.13;;;10.40;99.90;;;;;;5009522;28;20184;-69
2022/06/01 03:35:25;;;;;;;14.63;9.27;;;10.40;99.90;;;;;;5011652;28;20148;-67
2022/06/01 03:37:52;;;;;;;18.42;10.20;;;10.40;99.90;;;;;;5008059;28;20119;-65
2022/06/01 03:40:21;;;;;;;17.35;9.73;;;10.50;99.90;;;;;;5006290;28;20317;-66
2022/06/01 03:42:48;;;;;;;15.52;9.02;;;10.50;99.90;;;;;;5011185;28;20049;-67
2022/06/01 03:48:01;;;;;;;13.68;9.68;;;10.50;99.90;;;;;;5008352;28;20138;-69
2022/06/01 03:50:28;;;;;;;10.80;9.65;;;10.50;99.90;;;;;;5010063;28;20100;-67
2022/06/01 03:52:56;;;;;;;13.80;9.57;;;10.60;99.90;;;;;;5007936;28;20107;-66
2022/06/01 03:55:23;;;;;;;9.40;8.35;;;10.60;99.90;;;;;;5008808;28;20148;-69
2022/06/01 03:57:50;;;;;;;14.02;9.73;;;10.70;99.90;;;;;;5003676;28;20059;-67
2022/06/01 04:00:25;;;;;;;16.25;11.50;;;10.70;99.90;;;;;;5007101;28;20077;-66
2022/06/01 04:02:52;;;;;;;17.00;10.65;;;10.70;99.90;;;;;;5007856;28;20089;-66
2022/06/01 04:05:21;;;;;;;21.63;11.35;;;10.80;99.90;;;;;;5004100;28;20059;-67
2022/06/01 04:07:49;;;;;;;11.93;9.57;;;10.80;99.90;;;;;;5006323;28;20418;-67
2022/06/01 04:10:16;;;;;;;16.40;11.00;;;10.80;99.90;;;;;;5008168;28;20626;-67
2022/06/01 04:12:42;;;;;;;10.95;9.77;;;10.90;99.90;;;;;;5001521;28;20174;-66
2022/06/01 04:15:10;;;;;;;14.30;9.32;;;10.90;99.90;;;;;;5005191;28;20685;-69
2022/06/01 04:17:37;;;;;;;13.23;8.57;;;11.00;99.90;;;;;;5006107;28;20115;-67
2022/06/01 04:20:06;;;;;;;9.77;8.88;;;11.00;99.90;;;;;;5005914;28;20146;-66
2022/06/01 04:22:35;;;;;;;13.82;8.20;;;11.10;99.90;;;;;;5004668;28;20053;-67
2022/06/01 04:25:02;;;;;;;17.48;8.55;;;11.10;99.90;;;;;;5007552;28;20058;-66
2022/06/01 04:27:29;;;;;;;13.55;8.65;;;11.20;99.90;;;;;;5006528;28;20081;-68
2022/06/01 04:29:56;;;;;;;8.82;7.85;;;11.10;99.90;;;;;;5004878;28;20072;-70
2022/06/01 04:32:31;;;;;;;12.80;7.93;;;11.20;99.90;;;;;;5012357;28;20057;-68
2022/06/01 04:35:03;;;;;;;13.85;8.23;;;11.20;99.90;;;;;;5010212;28;20049;-68
2022/06/01 04:37:30;;;;;;;13.20;9.07;;;11.20;99.90;;;;;;5008714;28;20115;-65
2022/06/01 04:39:57;;;;;;;9.35;6.68;;;11.20;99.90;;;;;;5011748;28;20180;-70
2022/06/01 04:42:24;;;;;;;9.90;7.07;;;11.30;99.90;;;;;;5011233;28;20691;-67
2022/06/01 04:44:51;;;;;;;13.20;7.78;;;11.30;99.90;;;;;;5008733;28;20480;-68
2022/06/01 04:47:19;;;;;;;8.45;6.72;;;11.30;99.90;;;;;;5013106;28;20092;-67
2022/06/01 04:49:46;;;;;;;8.65;5.90;;;11.40;99.90;;;;;;5007889;28;20045;-67
2022/06/01 04:52:14;;;;;;;9.18;6.25;;;11.40;99.90;;;;;;5012151;28;20162;-67
2022/06/01 04:54:41;;;;;;;13.57;6.25;;;11.50;99.90;;;;;;5010303;28;20516;-67
2022/06/01 04:57:07;;;;;;;11.60;6.82;;;11.50;99.90;;;;;;5012314;28;20085;-69
2022/06/01 04:59:35;;;;;;;9.65;6.65;;;11.50;99.90;;;;;;5004944;28;20045;-70
2022/06/01 05:02:02;;;;;;;13.90;6.85;;;11.50;99.90;;;;;;5008850;28;20052;-69
2022/06/01 05:04:29;;;;;;;11.70;6.45;;;11.50;99.90;;;;;;5009577;28;20049;-66
2022/06/01 05:06:56;;;;;;;14.95;6.18;;;11.50;99.90;;;;;;5006618;28;20045;-68
2022/06/01 05:09:23;;;;;;;8.00;6.03;;;11.50;99.90;;;;;;5005579;28;20287;-69
2022/06/01 05:11:51;;;;;;;12.30;7.38;;;11.50;99.90;;;;;;5007148;28;20053;-68
2022/06/01 05:14:18;;;;;;;9.40;7.00;;;11.50;99.90;;;;;;5006975;28;20057;-69
2022/06/01 05:16:45;;;;;;;7.35;6.00;;;11.50;99.90;;;;;;5002712;28;20882;-69
2022/06/01 05:19:12;;;;;;;10.63;7.28;;;11.50;99.90;;;;;;5008403;28;20049;-67
2022/06/01 05:21:38;;;;;;;11.85;7.10;;;11.60;99.90;;;;;;5007875;28;20172;-68
2022/06/01 05:24:06;;;;;;;9.32;6.25;;;11.70;99.90;;;;;;5003218;28;20058;-66
2022/06/01 05:26:33;;;;;;;14.00;7.05;;;11.70;99.90;;;;;;5010110;28;20048;-66
2022/06/01 05:29:00;;;;;;;6.68;6.05;;;11.80;99.90;;;;;;5010049;28;20123;-66
2022/06/01 05:31:27;;;;;;;9.63;6.10;;;11.80;99.90;;;;;;5006201;28;20161;-69
2022/06/01 05:33:54;;;;;;;8.13;5.75;;;11.80;99.90;;;;;;5007005;28;20196;-67
2022/06/01 05:36:21;;;;;;;5.85;5.15;;;11.90;99.90;;;;;;5011781;28;20058;-67
2022/06/01 05:38:48;;;;;;;6.43;5.65;;;11.90;99.90;;;;;;5008430;28;21505;-68
2022/06/01 05:41:15;;;;;;;9.38;6.57;;;11.90;99.90;;;;;;5007907;28;20053;-68
2022/06/01 05:43:43;;;;;;;9.68;4.97;;;11.90;99.90;;;;;;5007258;28;20055;-67
2022/06/01 05:46:10;;;;;;;8.20;4.13;;;11.90;99.90;;;;;;5011401;28;20115;-69
2022/06/01 05:48:36;;;;;;;13.18;4.68;;;11.90;99.90;;;;;;5005493;28;20049;-67
2022/06/01 05:51:04;;;;;;;9.27;4.95;;;12.00;99.90;;;;;;5011355;28;20180;-66
2022/06/01 05:53:31;;;;;;;6.93;4.55;;;12.00;99.90;;;;;;5009230;28;20195;-68
2022/06/01 05:55:58;;;;;;;10.13;4.80;;;12.10;99.90;;;;;;5010663;28;20139;-68
2022/06/01 05:58:27;;;;;;;8.77;4.80;;;12.20;99.90;;;;;;5011197;28;20537;-69
2022/06/01 06:00:56;;;;;;;9.18;4.82;;;12.30;99.90;;;;;;5011942;28;20068;-69
2022/06/01 06:03:26;;;;;;;5.88;5.07;;;12.30;99.90;;;;;;5010001;28;20135;-73
2022/06/01 06:06:15;;;;;;;5.00;3.65;;;12.40;99.90;;;;;;5008653;28;20119;-68
2022/06/01 06:08:44;;;;;;;5.35;3.65;;;12.50;99.90;;;;;;5009728;28;20057;-67
2022/06/01 06:11:22;;;;;;;6.68;3.72;;;12.60;99.90;;;;;;5022073;28;20053;-66
2022/06/01 06:13:49;;;;;;;5.50;3.10;;;12.70;99.90;;;;;;5007149;28;20183;-67
2022/06/01 06:16:17;;;;;;;6.80;3.25;;;12.80;99.90;;;;;;5011073;28;20053;-66
2022/06/01 06:18:44;;;;;;;4.55;3.25;;;12.80;99.90;;;;;;5009238;28;20163;-69
2022/06/01 06:21:11;;;;;;;6.53;3.25;;;12.90;99.90;;;;;;5004233;28;20148;-66
2022/06/01 06:23:39;;;;;;;7.05;3.53;;;13.00;99.90;;;;;;5008418;28;20104;-66
2022/06/01 06:26:06;;;;;;;4.97;3.15;;;13.10;99.90;;;;;;5010790;28;20049;-68
2022/06/01 06:28:34;;;;;;;5.65;3.55;;;13.10;99.90;;;;;;5009363;28;20196;-69
2022/06/01 06:31:02;;;;;;;7.03;3.47;;;13.10;99.90;;;;;;5004222;28;20061;-66
2022/06/01 06:33:29;;;;;;;3.70;2.47;;;13.20;99.90;;;;;;4999365;28;20199;-68
2022/06/01 06:35:58;;;;;;;3.00;2.70;;;13.30;99.90;;;;;;5004805;28;20219;-65
2022/06/01 06:38:27;;;;;;;8.07;3.13;;;13.30;99.90;;;;;;5008585;28;20522;-69
2022/06/01 06:40:57;;;;;;;4.13;2.85;;;13.40;99.90;;;;;;5007918;28;20118;-67
2022/06/01 06:43:27;;;;;;;4.55;3.20;;;13.50;99.90;;;;;;5009996;28;20290;-68
2022/06/01 06:46:02;;;;;;;4.38;3.08;;;13.50;99.90;;;;;;5005549;28;20503;-66
2022/06/01 06:48:29;;;;;;;4.43;3.10;;;13.50;99.90;;;;;;5008592;28;20065;-65
2022/06/01 06:50:57;;;;;;;2.70;2.50;;;13.60;99.90;;;;;;5006828;28;20062;-67
2022/06/01 06:53:24;;;;;;;4.15;2.58;;;13.50;99.90;;;;;;5007254;28;20231;-67
2022/06/01 06:55:51;;;;;;;4.28;2.58;;;13.60;99.90;;;;;;5006044;28;20104;-66
2022/06/01 06:58:18;;;;;;;4.93;3.72;;;13.50;99.90;;;;;;5011095;28;20099;-69
2022/06/01 07:00:45;;;;;;;7.70;4.10;;;13.50;99.90;;;;;;5009665;28;20949;-64
2022/06/01 07:03:13;;;;;;;4.03;2.95;;;13.50;99.90;;;;;;5009003;28;20136;-69
2022/06/01 07:08:50;;;;;;;2.47;2.05;;;13.50;99.90;;;;;;4979150;28;20054;-68
2022/06/01 07:11:20;;;;;;;3.97;2.67;;;13.60;99.90;;;;;;5006194;28;20053;-64
2022/06/01 07:13:48;;;;;;;5.65;2.17;;;13.60;99.90;;;;;;5010601;28;20768;-65
2022/06/01 07:16:16;;;;;;;4.82;2.20;;;13.70;99.90;;;;;;5008492;28;20059;-65
2022/06/01 07:18:45;;;;;;;3.85;2.00;;;13.80;99.90;;;;;;5006257;28;20060;-68
2022/06/01 07:21:16;;;;;;;1.60;1.50;;;14.00;99.90;;;;;;5008840;28;20045;-69
2022/06/01 07:23:44;;;;;;;2.55;1.48;;;14.00;99.90;;;;;;5005858;28;20049;-65
2022/06/01 07:26:19;;;;;;;2.28;1.60;;;14.00;99.90;;;;;;5009338;28;20081;-64
2022/06/01 07:28:46;;;;;;;2.15;1.50;;;14.10;99.90;;;;;;5005585;28;21060;-66
2022/06/01 07:31:14;;;;;;;4.40;1.20;;;14.20;99.90;;;;;;5004413;28;20785;-65
2022/06/01 07:33:41;;;;;;;2.40;1.42;;;14.30;99.90;;;;;;5005808;28;20056;-65
2022/06/01 07:36:11;;;;;;;2.25;1.33;;;14.40;99.90;;;;;;4988263;28;20111;-64
2022/06/01 07:44:28;;;;;;;3.83;1.48;;;14.60;99.90;;;;;;5007486;28;20960;-66
2022/06/01 07:46:55;;;;;;;1.30;0.68;;;14.70;99.90;;;;;;5007305;28;20057;-66
2022/06/01 07:49:42;;;;;;;1.80;0.88;;;14.70;99.90;;;;;;5006580;28;20045;-65
2022/06/01 07:52:29;;;;;;;2.28;1.35;;;14.70;99.90;;;;;;5007466;28;21085;-65
2022/06/01 07:54:56;;;;;;;2.05;0.90;;;14.80;99.90;;;;;;5008144;28;20051;-67
2022/06/01 07:57:23;;;;;;;1.13;1.02;;;14.80;99.90;;;;;;4999680;28;20060;-69
2022/06/01 07:59:50;;;;;;;0.98;0.98;;;14.90;99.90;;;;;;5001753;28;20180;-66
2022/06/01 08:02:17;;;;;;;1.20;1.02;;;14.80;99.90;;;;;;5008539;28;20065;-65
2022/06/01 08:04:44;;;;;;;2.80;1.15;;;14.90;99.90;;;;;;5004918;28;20093;-65
2022/06/01 08:07:11;;;;;;;1.63;1.08;;;15.00;99.90;;;;;;5004598;28;20051;-67
2022/06/01 08:09:38;;;;;;;5.82;1.60;;;15.10;99.90;;;;;;5006254;28;20053;-65
2022/06/01 08:14:51;;;;;;;2.10;1.08;;;15.20;99.90;;;;;;5003169;28;20186;-68
2022/06/01 08:17:19;;;;;;;1.45;1.35;;;15.30;99.90;;;;;;5005171;28;20136;-66
2022/06/01 08:19:46;;;;;;;3.72;1.30;;;15.30;99.90;;;;;;5006631;28;20072;-67
2022/06/01 08:22:15;;;;;;;1.58;1.20;;;15.40;99.90;;;;;;5008199;28;20049;-66
2022/06/01 08:24:42;;;;;;;3.42;1.20;;;15.40;99.90;;;;;;5006107;28;20455;-66
2022/06/01 08:27:09;;;;;;;1.55;1.02;;;15.40;99.90;;;;;;5005723;28;20092;-66
2022/06/01 08:29:37;;;;;;;1.50;1.00;;;15.50;99.90;;;;;;5002446;28;20168;-67
2022/06/01 08:32:06;;;;;;;2.40;1.10;;;15.60;99.90;;;;;;5005805;28;20749;-65
2022/06/01 08:34:35;;;;;;;1.75;1.27;;;15.70;99.90;;;;;;5005064;28;21029;-65
2022/06/01 08:37:02;;;;;;;6.00;1.02;;;15.80;99.90;;;;;;5003180;28;20138;-65
2022/06/01 08:39:29;;;;;;;0.80;0.80;;;15.80;99.90;;;;;;5003477;28;21239;-66
2022/06/01 08:41:58;;;;;;;3.55;1.38;;;15.90;99.90;;;;;;4985619;28;20758;-65
2022/06/01 08:44:37;;;;;;;1.13;0.95;;;15.90;99.90;;;;;;4999928;28;20073;-65
2022/06/01 08:47:09;;;;;;;1.25;1.02;;;15.90;99.90;;;;;;5010003;28;20678;-65
2022/06/01 08:49:38;;;;;;;2.47;0.90;;;15.90;99.90;;;;;;5008921;28;20169;-66
2022/06/01 08:52:06;;;;;;;7.25;0.98;;;15.90;99.90;;;;;;5007768;28;20139;-66
2022/06/01 08:54:33;;;;;;;3.90;1.40;;;15.90;99.90;;;;;;5004579;28;20061;-65
2022/06/01 08:57:08;;;;;;;1.15;0.88;;;15.80;99.90;;;;;;5006388;28;20053;-69
2022/06/01 09:00:08;;;;;;;1.45;1.27;;;15.90;99.90;;;;;;5005106;28;20670;-69
2022/06/01 09:02:42;;;;;;;2.27;0.80;;;16.00;99.90;;;;;;5008837;28;20132;-69
2022/06/01 09:05:20;;;;;;;1.48;1.00;;;16.20;99.90;;;;;;5010508;28;20057;-66
2022/06/01 09:07:59;;;;;;;1.48;1.05;;;16.20;99.90;;;;;;5009373;28;20157;-66
2022/06/01 09:10:38;;;;;;;3.45;1.23;;;16.20;99.90;;;;;;5008649;28;20046;-69
2022/06/01 09:13:15;;;;;;;3.00;1.35;;;16.30;99.90;;;;;;5009744;28;20049;-67
2022/06/01 09:15:49;;;;;;;3.60;0.88;;;16.50;99.90;;;;;;5008976;28;20785;-65
2022/06/01 09:18:23;;;;;;;7.55;1.23;;;16.60;99.90;;;;;;5015762;28;20132;-67
2022/06/01 09:23:37;;;;;;;2.67;1.10;;;16.70;99.90;;;;;;5009391;28;20496;-65
2022/06/01 09:26:05;;;;;;;1.88;0.60;;;16.70;99.90;;;;;;5011048;28;20351;-65
2022/06/01 09:28:39;;;;;;;1.05;0.93;;;16.80;99.90;;;;;;5011286;28;20045;-66
2022/06/01 09:31:24;;;;;;;1.13;0.73;;;17.00;99.90;;;;;;5008408;28;20051;-65
2022/06/01 09:33:51;;;;;;;2.00;0.68;;;17.20;99.90;;;;;;5009992;28;20419;-66
2022/06/01 09:36:27;;;;;;;1.83;0.90;;;17.20;99.90;;;;;;5010497;28;20180;-66
2022/06/01 09:39:01;;;;;;;4.05;1.70;;;17.10;99.90;;;;;;5011409;28;20663;-66
2022/06/01 09:41:39;;;;;;;2.63;1.48;;;17.20;99.90;;;;;;5009945;28;20713;-66
2022/06/01 09:44:10;;;;;;;2.35;1.05;;;17.20;99.90;;;;;;5010254;28;20121;-64
2022/06/01 09:46:40;;;;;;;3.20;1.30;;;17.30;99.90;;;;;;5010389;28;20053;-66
2022/06/01 09:49:32;;;;;;;1.90;1.20;;;17.40;99.90;;;;;;5006199;28;20487;-67
2022/06/01 09:52:12;;;;;;;1.67;1.40;;;17.50;99.90;;;;;;4989532;28;20045;-68
2022/06/01 09:54:44;;;;;;;2.38;1.50;;;17.70;99.90;;;;;;5011900;28;20069;-66
2022/06/01 09:57:18;;;;;;;1.85;1.65;;;17.50;99.90;;;;;;5008919;28;20045;-69
2022/06/01 10:08:30;;;;;;;1.63;1.50;;;17.50;99.90;;;;;;5011315;28;20400;-67
2022/06/01 10:11:09;;;;;;;1.95;1.27;;;17.70;99.90;;;;;;5013176;28;20050;-66
2022/06/01 10:13:46;;;;;;;1.83;1.30;;;17.80;99.90;;;;;;5010626;28;20415;-65
2022/06/01 10:16:35;;;;;;;1.42;1.00;;;18.00;99.90;;;;;;5010961;28;20092;-68
2022/06/01 10:19:05;;;;;;;0.82;0.80;;;18.20;99.90;;;;;;5007061;28;20057;-67
2022/06/01 10:21:47;;;;;;;3.08;1.40;;;18.20;99.90;;;;;;5007784;28;20061;-67
2022/06/01 10:24:26;;;;;;;4.60;1.10;;;18.00;99.90;;;;;;5010266;28;20729;-65
2022/06/01 10:26:55;;;;;;;2.30;1.40;;;18.00;99.90;;;;;;5010585;28;20108;-67
2022/06/01 10:29:35;;;;;;;2.03;1.53;;;17.90;99.90;;;;;;5010134;28;20123;-66
2022/06/01 10:32:17;;;;;;;2.88;1.63;;;17.90;99.90;;;;;;5011155;28;20132;-68
2022/06/01 10:35:14;;;;;;;3.92;1.58;;;17.50;99.90;;;;;;5008966;28;20097;-69
2022/06/01 10:37:58;;;;;;;1.88;1.40;;;17.50;99.90;;;;;;5006702;28;20061;-66
2022/06/01 10:40:36;;;;;;;1.73;1.63;;;17.60;99.90;;;;;;5010608;28;20061;-69
2022/06/01 10:43:22;;;;;;;2.10;1.40;;;17.90;99.90;;;;;;5010198;28;20060;-68
2022/06/01 10:46:05;;;;;;;1.67;1.58;;;18.00;99.90;;;;;;5007156;28;20085;-72
2022/06/01 10:48:42;;;;;;;4.38;2.00;;;17.80;99.90;;;;;;4991579;28;20507;-66
2022/06/01 10:51:17;;;;;;;1.52;1.42;;;17.60;99.90;;;;;;5006857;28;21139;-65
2022/06/01 10:54:26;;;;;;;2.40;1.88;;;17.70;99.90;;;;;;5007323;28;20060;-67
2022/06/01 10:56:55;;;;;;;1.80;1.67;;;17.70;99.90;;;;;;5010569;28;20046;-65
2022/06/01 10:59:24;;;;;;;3.72;1.98;;;17.70;99.90;;;;;;5011458;28;20054;-67
2022/06/01 11:02:20;;;;;;;4.60;2.47;;;17.60;99.90;;;;;;5007834;28;20076;-67
2022/06/01 11:05:23;;;;;;;8.18;2.45;;;17.40;99.90;;;;;;5008060;28;20287;-71
2022/06/01 11:08:13;;;;;;;1.40;1.30;;;17.00;99.90;;;;;;5004106;28;20120;-67
2022/06/01 11:11:15;;;;;;;1.98;1.80;;;17.00;99.90;;;;;;5010471;28;20149;-65
2022/06/01 11:14:09;;;;;;;3.60;1.33;;;16.90;99.90;;;;;;5009559;28;20103;-66
2022/06/01 11:16:38;;;;;;;6.60;1.45;;;16.80;99.90;;;;;;5009593;28;20136;-66
2022/06/01 11:19:32;;;;;;;2.15;1.17;;;16.80;99.90;;;;;;5010197;28;20170;-69
2022/06/01 11:22:08;;;;;;;2.35;1.20;;;16.60;99.90;;;;;;4983702;28;20049;-65
2022/06/01 11:25:11;;;;;;;5.15;1.65;;;16.60;99.90;;;;;;5007578;28;20072;-68
2022/06/01 11:28:14;;;;;;;1.30;1.20;;;16.50;99.90;;;;;;5006937;28;20049;-69
2022/06/01 11:30:56;;;;;;;3.17;1.75;;;16.40;99.90;;;;;;5009962;28;20045;-66
2022/06/01 11:33:50;;;;;;;2.40;1.50;;;16.40;99.90;;;;;;5006819;28;20407;-67
2022/06/01 11:36:19;;;;;;;2.85;1.42;;;16.30;99.90;;;;;;5006673;28;20085;-69
2022/06/01 11:38:54;;;;;;;2.10;1.40;;;16.20;99.90;;;;;;5005200;28;20135;-67
2022/06/01 11:41:29;;;;;;;2.17;1.40;;;16.30;99.90;;;;;;5007560;28;20762;-69
2022/06/01 11:44:13;;;;;;;1.33;1.10;;;16.30;99.90;;;;;;5006570;28;20131;-68
2022/06/01 11:46:52;;;;;;;1.95;1.63;;;16.30;99.90;;;;;;5005949;28;20045;-65
2022/06/01 11:49:41;;;;;;;2.78;1.58;;;16.40;99.90;;;;;;5006719;28;20056;-64
2022/06/01 11:52:40;;;;;;;2.50;2.30;;;16.50;99.90;;;;;;5007086;28;20045;-69
2022/06/01 11:55:30;;;;;;;1.40;1.30;;;16.60;99.90;;;;;;5005081;28;20046;-69
2022/06/01 11:58:06;;;;;;;1.80;1.58;;;16.80;99.90;;;;;;5008031;28;20052;-69
2022/06/01 12:00:41;;;;;;;3.05;1.60;;;17.00;99.90;;;;;;5009685;28;20063;-66
2022/06/01 12:03:17;;;;;;;2.20;1.80;;;17.20;99.90;;;;;;5008899;28;22871;-67
2022/06/01 12:06:11;;;;;;;3.95;1.83;;;17.50;99.90;;;;;;5005118;28;20176;-69
2022/06/01 12:08:48;;;;;;;1.95;1.85;;;17.80;99.90;;;;;;5006979;28;20466;-68
2022/06/01 12:11:42;;;;;;;2.78;1.95;;;18.10;99.90;;;;;;5003138;28;20066;-67
2022/06/01 12:14:30;;;;;;;3.85;1.95;;;18.40;99.90;;;;;;5002824;28;20049;-69
2022/06/01 12:17:15;;;;;;;3.75;2.55;;;18.50;99.90;;;;;;4990958;28;20058;-67
2022/06/01 12:19:52;;;;;;;2.90;2.67;;;18.40;99.90;;;;;;5005993;28;20076;-67
2022/06/01 12:28:54;;;;;;;3.03;2.53;;;17.90;99.90;;;;;;5005617;28;20127;-66
2022/06/01 12:31:32;;;;;;;3.90;2.25;;;17.70;99.90;;;;;;5010439;28;20064;-69
2022/06/01 12:34:00;;;;;;;5.13;1.88;;;17.40;99.90;;;;;;5008830;28;20792;-65
2022/06/01 12:36:36;;;;;;;3.50;2.50;;;17.30;99.90;;;;;;5009838;28;20116;-66
2022/06/01 12:39:07;;;;;;;2.75;2.42;;;17.30;99.90;;;;;;5008964;28;20770;-66
2022/06/01 12:41:36;;;;;;;4.43;2.17;;;17.30;99.90;;;;;;5007245;28;20053;-66
2022/06/01 12:44:09;;;;;;;2.15;1.95;;;17.30;99.90;;;;;;5005494;28;20472;-66
2022/06/01 12:46:43;;;;;;;2.08;1.90;;;17.30;99.90;;;;;;5008552;28;20077;-67
2022/06/01 12:49:45;;;;;;;4.05;2.25;;;17.20;99.90;;;;;;5007515;28;20053;-65
2022/06/01 12:52:24;;;;;;;2.13;1.92;;;17.10;99.90;;;;;;4995924;28;20127;-66
2022/06/01 12:54:54;;;;;;;2.37;2.17;;;17.00;99.90;;;;;;5011864;28;20176;-68
2022/06/01 12:57:31;;;;;;;2.70;1.97;;;17.00;99.90;;;;;;5012647;28;20483;-69
2022/06/01 13:00:07;;;;;;;3.05;2.20;;;16.90;99.90;;;;;;5008618;28;20075;-68
2022/06/01 13:02:40;;;;;;;2.17;1.65;;;16.80;99.90;;;;;;5011657;28;20050;-67
2022/06/01 13:05:11;;;;;;;1.90;1.52;;;16.80;99.90;;;;;;5010958;28;20081;-65
2022/06/01 13:07:45;;;;;;;1.83;1.60;;;16.70;99.90;;;;;;5009854;28;20217;-67
2022/06/01 13:10:26;;;;;;;1.92;1.63;;;16.70;99.90;;;;;;5011766;28;20761;-65
2022/06/01 13:13:06;;;;;;;4.75;1.83;;;16.60;99.90;;;;;;5011686;28;20171;-66
2022/06/01 13:15:33;;;;;;;2.40;1.80;;;16.50;99.90;;;;;;5006416;28;20085;-65
2022/06/01 13:18:11;;;;;;;2.45;1.80;;;16.50;99.90;;;;;;5012825;28;20137;-67
2022/06/01 13:20:44;;;;;;;2.08;1.88;;;16.50;99.90;;;;;;5012664;28;20135;-69
2022/06/01 13:23:30;;;;;;;2.55;1.75;;;16.60;99.90;;;;;;5011359;28;20045;-69
2022/06/01 13:26:03;;;;;;;1.60;1.50;;;16.60;99.90;;;;;;4991276;28;20049;-65
2022/06/01 13:28:30;;;;;;;3.90;1.92;;;16.60;99.90;;;;;;5012703;28;20103;-65
2022/06/01 13:30:59;;;;;;;4.57;2.08;;;16.70;99.90;;;;;;5008638;28;20144;-65
2022/06/01 13:33:41;;;;;;;1.77;1.65;;;16.70;99.90;;;;;;5008049;28;20081;-68
2022/06/01 13:36:25;;;;;;;2.28;1.92;;;16.70;99.90;;;;;;5010483;28;20206;-68
2022/06/01 13:39:02;;;;;;;3.58;1.75;;;16.70;99.90;;;;;;5011138;28;20147;-67
2022/06/01 13:41:34;;;;;;;4.55;1.83;;;16.70;99.90;;;;;;4990807;28;20061;-66
2022/06/01 13:44:13;;;;;;;4.10;1.70;;;16.60;99.90;;;;;;5010080;28;20739;-66
2022/06/01 13:46:45;;;;;;;5.75;1.60;;;16.10;99.90;;;;;;5008198;28;20147;-67
2022/06/01 13:49:16;;;;;;;2.00;1.70;;;15.70;99.90;;;;;;5010149;28;20049;-66
2022/06/01 13:51:55;;;;;;;1.80;1.40;;;15.50;99.90;;;;;;5009740;28;20144;-67